createdAt,value
2023-01-31T00:02:05.438Z,15.08
2023-01-31T00:05:20.172Z,15.90
2023-01-31T00:08:32.560Z,17.23
2023-01-31T00:11:44.993Z,13.10
2023-01-31T00:14:58.897Z,14.38
2023-01-31T00:18:11.337Z,12.73
2023-01-31T00:21:27.018Z,13.43
2023-01-31T00:24:39.088Z,13.38
2023-01-31T00:27:51.238Z,15.33
2023-01-31T00:31:05.740Z,13.70
2023-01-31T00:34:18.931Z,10.65
2023-01-31T00:37:31.141Z,13.53
2023-01-31T00:40:43.617Z,14.15
2023-01-31T00:43:59.674Z,15.85
2023-01-31T00:47:11.901Z,15.07
2023-01-31T00:50:25.701Z,13.70
2023-01-31T00:53:39.840Z,15.05
2023-01-31T00:56:51.845Z,15.15
2023-01-31T01:00:04.050Z,13.20
2023-01-31T01:03:16.667Z,12.00
2023-01-31T01:06:30.541Z,15.60
2023-01-31T01:09:42.530Z,16.00
2023-01-31T01:12:54.607Z,9.93
2023-01-31T01:16:13.034Z,13.95
2023-01-31T01:19:26.323Z,13.43
2023-01-31T01:22:39.682Z,12.35
2023-01-31T01:25:52.660Z,10.83
2023-01-31T01:29:08.067Z,11.05
2023-01-31T01:32:20.399Z,9.18
2023-01-31T01:35:33.005Z,9.60
2023-01-31T01:38:46.402Z,10.58
2023-01-31T01:41:58.462Z,10.93
2023-01-31T01:45:21.308Z,10.33
2023-01-31T01:48:35.069Z,9.80
2023-01-31T01:51:49.057Z,10.50
2023-01-31T01:55:06.801Z,11.75
2023-01-31T01:58:23.840Z,11.33
2023-01-31T02:04:53.439Z,10.65
2023-01-31T02:08:07.282Z,11.00
2023-01-31T02:11:25.747Z,12.48
2023-01-31T02:14:38.014Z,10.33
2023-01-31T02:17:50.298Z,10.48
2023-01-31T02:21:58.615Z,12.28
2023-01-31T02:25:57.989Z,10.90
2023-01-31T02:29:42.185Z,12.23
2023-01-31T02:33:05.113Z,13.60
2023-01-31T02:36:26.835Z,12.60
2023-01-31T02:39:45.593Z,15.48
2023-01-31T02:43:05.789Z,12.23
2023-01-31T02:46:22.194Z,12.85
2023-01-31T02:49:41.137Z,14.23
2023-01-31T02:53:03.370Z,11.33
2023-01-31T02:56:25.144Z,10.80
2023-01-31T02:59:39.078Z,21.83
2023-01-31T03:02:51.108Z,13.25
2023-01-31T03:06:48.673Z,15.18
2023-01-31T03:10:09.012Z,13.38
2023-01-31T03:13:42.668Z,13.15
2023-01-31T03:17:13.952Z,18.55
2023-01-31T03:20:32.013Z,16.98
2023-01-31T03:23:45.287Z,18.20
2023-01-31T03:26:57.702Z,13.53
2023-01-31T03:30:18.546Z,16.43
2023-01-31T03:33:35.432Z,13.68
2023-01-31T03:36:55.003Z,13.18
2023-01-31T03:40:30.766Z,19.45
2023-01-31T03:43:48.508Z,14.40
2023-01-31T03:47:06.061Z,14.60
2023-01-31T03:50:24.509Z,14.98
2023-01-31T03:53:43.162Z,12.78
2023-01-31T03:57:00.993Z,25.90
2023-01-31T04:00:19.901Z,17.18
2023-01-31T04:03:39.730Z,16.28
2023-01-31T04:06:52.473Z,12.68
2023-01-31T04:10:05.648Z,23.95
2023-01-31T04:13:17.944Z,20.00
2023-01-31T04:16:29.994Z,14.78
2023-01-31T04:19:41.891Z,19.45
2023-01-31T04:22:53.898Z,14.35
2023-01-31T04:26:06.094Z,15.13
2023-01-31T04:29:18.231Z,14.33
2023-01-31T04:32:30.142Z,15.23
2023-01-31T04:35:42.304Z,18.20
2023-01-31T04:38:54.203Z,18.08
2023-01-31T04:42:05.985Z,16.30
2023-01-31T04:45:19.646Z,14.10
2023-01-31T04:48:31.875Z,13.20
2023-01-31T04:51:44.048Z,14.83
2023-01-31T04:54:56.054Z,15.75
2023-01-31T04:58:08.785Z,10.50
2023-01-31T05:01:20.790Z,8.58
2023-01-31T05:04:32.846Z,11.90
2023-01-31T05:07:45.839Z,10.48
2023-01-31T05:11:05.857Z,7.98
2023-01-31T05:14:18.552Z,10.13
2023-01-31T05:17:31.527Z,12.43
2023-01-31T05:20:45.107Z,8.90
2023-01-31T05:23:57.490Z,11.93
2023-01-31T05:27:09.918Z,11.98
2023-01-31T05:30:24.276Z,14.23
2023-01-31T05:33:36.575Z,13.93
2023-01-31T05:36:49.212Z,11.98
2023-01-31T05:40:01.211Z,10.93
2023-01-31T05:43:13.316Z,14.55
2023-01-31T05:46:25.527Z,13.58
2023-01-31T05:49:37.606Z,14.28
2023-01-31T05:52:50.128Z,16.58
2023-01-31T05:56:02.592Z,12.85
2023-01-31T05:59:15.274Z,12.43
2023-01-31T06:02:27.228Z,13.90
2023-01-31T06:05:40.594Z,15.30
2023-01-31T06:08:52.746Z,16.25
2023-01-31T06:12:05.096Z,16.88
2023-01-31T06:15:19.037Z,14.15
2023-01-31T06:18:31.878Z,15.35
2023-01-31T06:21:44.448Z,8.83
2023-01-31T06:24:56.434Z,14.60
2023-01-31T06:28:08.864Z,17.65
2023-01-31T06:31:21.122Z,9.18
2023-01-31T06:34:33.550Z,9.98
2023-01-31T06:37:45.718Z,14.18
2023-01-31T06:40:57.889Z,13.30
2023-01-31T06:44:10.200Z,10.78
2023-01-31T06:47:22.267Z,12.00
2023-01-31T06:50:34.556Z,13.45
2023-01-31T06:53:46.506Z,10.83
2023-01-31T06:56:58.520Z,13.48
2023-01-31T07:00:13.523Z,14.60
2023-01-31T07:03:25.497Z,16.65
2023-01-31T07:06:37.535Z,13.00
2023-01-31T07:09:49.634Z,15.10
2023-01-31T07:13:02.185Z,12.85
2023-01-31T07:16:17.030Z,12.63
2023-01-31T07:19:29.213Z,13.45
2023-01-31T07:22:41.421Z,12.55
2023-01-31T07:25:53.579Z,16.55
2023-01-31T07:29:05.648Z,21.20
2023-01-31T07:32:18.057Z,20.20
2023-01-31T07:35:30.189Z,14.18
2023-01-31T07:38:42.351Z,14.63
2023-01-31T07:41:54.451Z,18.13
2023-01-31T07:45:22.436Z,16.35
2023-01-31T07:48:24.000Z,12.58
2023-01-31T07:51:36.115Z,12.33
2023-01-31T07:54:47.932Z,17.50
2023-01-31T07:57:59.827Z,16.40
2023-01-31T08:01:26.854Z,17.93
2023-01-31T08:07:52.366Z,15.98
2023-01-31T08:11:05.295Z,14.75
2023-01-31T08:14:17.374Z,17.53
2023-01-31T08:17:29.541Z,17.18
2023-01-31T08:20:42.051Z,14.28
2023-01-31T08:23:55.445Z,19.28
2023-01-31T08:27:07.834Z,14.53
2023-01-31T08:30:22.059Z,15.50
2023-01-31T08:33:34.234Z,12.53
2023-01-31T08:36:46.732Z,20.03
2023-01-31T08:39:58.703Z,16.95
2023-01-31T08:43:10.536Z,15.85
2023-01-31T08:46:23.019Z,16.38
2023-01-31T08:49:37.167Z,18.93
2023-01-31T08:52:49.149Z,17.48
2023-01-31T08:56:07.795Z,19.00
2023-01-31T08:59:20.419Z,17.63
2023-01-31T09:02:32.594Z,18.78
2023-01-31T09:05:44.766Z,17.75
2023-01-31T09:08:57.217Z,18.63
2023-01-31T09:12:11.771Z,19.83
2023-01-31T09:15:24.457Z,14.88
2023-01-31T09:18:36.937Z,21.60
2023-01-31T09:21:49.128Z,21.10
2023-01-31T09:25:01.081Z,22.88
2023-01-31T09:28:13.223Z,24.23
2023-01-31T09:31:26.596Z,19.83
2023-01-31T09:34:39.017Z,22.33
2023-01-31T09:37:50.962Z,24.48
2023-01-31T09:41:07.365Z,17.33
2023-01-31T09:44:24.080Z,19.98
2023-01-31T09:47:40.989Z,17.18
2023-01-31T09:50:58.730Z,23.33
2023-01-31T09:54:17.273Z,22.78
2023-01-31T09:57:40.329Z,22.35
2023-01-31T10:00:59.033Z,23.58
2023-01-31T10:04:33.427Z,22.98
2023-01-31T10:07:52.810Z,21.43
2023-01-31T10:11:11.560Z,23.58
2023-01-31T10:14:34.427Z,25.70
2023-01-31T10:17:53.139Z,23.70
2023-01-31T10:21:11.052Z,21.88
2023-01-31T10:24:29.203Z,18.70
2023-01-31T10:27:50.692Z,20.30
2023-01-31T10:31:09.789Z,22.40
2023-01-31T10:34:26.102Z,23.05
2023-01-31T10:37:45.988Z,30.90
2023-01-31T10:41:03.318Z,22.50
2023-01-31T10:44:25.559Z,18.33
2023-01-31T10:47:41.282Z,18.73
2023-01-31T10:51:05.239Z,24.55
2023-01-31T10:54:29.906Z,22.93
2023-01-31T10:57:42.158Z,25.90
2023-01-31T11:00:55.241Z,23.88
2023-01-31T11:04:13.752Z,17.50
2023-01-31T11:07:26.640Z,15.43
2023-01-31T11:10:40.443Z,21.73
2023-01-31T11:14:05.395Z,17.20
2023-01-31T11:17:25.236Z,19.45
2023-01-31T11:20:40.815Z,20.13
2023-01-31T11:23:53.140Z,20.90
2023-01-31T11:27:10.661Z,21.50
2023-01-31T11:30:36.225Z,19.88
2023-01-31T11:33:53.315Z,16.83
2023-01-31T11:40:34.842Z,19.25
2023-01-31T11:43:49.285Z,17.55
2023-01-31T11:47:05.304Z,19.53
2023-01-31T11:50:28.953Z,24.50
2023-01-31T11:53:47.236Z,15.63
2023-01-31T11:57:00.428Z,15.05
2023-01-31T12:00:26.546Z,14.18
2023-01-31T12:03:51.809Z,17.98
2023-01-31T12:07:08.285Z,16.43
2023-01-31T12:10:47.150Z,12.05
2023-01-31T12:14:06.817Z,16.28
2023-01-31T12:17:22.378Z,12.08
2023-01-31T12:20:44.724Z,15.25
2023-01-31T12:24:04.913Z,13.60
2023-01-31T12:27:30.263Z,14.85
2023-01-31T12:31:21.589Z,17.38
2023-01-31T12:34:59.453Z,18.68
2023-01-31T12:38:11.976Z,15.78
2023-01-31T12:41:36.077Z,12.73
2023-01-31T12:44:55.369Z,13.33
2023-01-31T12:48:36.948Z,14.45
2023-01-31T12:51:55.789Z,16.98
2023-01-31T12:55:21.036Z,13.40
2023-01-31T12:58:49.635Z,15.75
2023-01-31T13:02:07.170Z,12.73
2023-01-31T13:05:30.812Z,14.80
2023-01-31T13:08:57.066Z,19.00
2023-01-31T13:12:07.116Z,15.38
2023-01-31T13:15:25.853Z,17.60
2023-01-31T13:18:40.901Z,20.98
2023-01-31T13:21:58.853Z,15.68
2023-01-31T13:25:19.488Z,15.45
2023-01-31T13:28:36.563Z,19.43
2023-01-31T13:31:55.157Z,19.00
2023-01-31T13:35:14.138Z,16.10
2023-01-31T13:38:28.262Z,18.35
2023-01-31T13:41:41.295Z,14.90
2023-01-31T13:44:55.002Z,17.05
2023-01-31T13:48:12.560Z,17.35
2023-01-31T13:51:29.467Z,12.95
2023-01-31T13:54:45.803Z,15.63
2023-01-31T13:58:06.713Z,20.15
2023-01-31T14:01:26.310Z,20.23
2023-01-31T14:04:43.666Z,17.18
2023-01-31T14:08:20.478Z,16.68
2023-01-31T14:11:48.913Z,19.38
2023-01-31T14:15:03.861Z,18.18
2023-01-31T14:18:16.659Z,17.60
2023-01-31T14:22:03.486Z,16.38
2023-01-31T14:25:21.351Z,24.40
2023-01-31T14:28:36.009Z,17.60
2023-01-31T14:31:48.923Z,21.15
2023-01-31T14:35:02.751Z,26.13
2023-01-31T14:38:21.731Z,21.35
2023-01-31T14:41:40.854Z,24.83
2023-01-31T14:45:05.268Z,23.23
2023-01-31T14:48:38.599Z,21.48
2023-01-31T14:52:06.895Z,19.13
2023-01-31T14:55:41.275Z,22.98
2023-01-31T14:58:54.621Z,19.68
2023-01-31T15:02:22.502Z,22.78
2023-01-31T15:05:51.713Z,18.20
2023-01-31T15:09:41.794Z,21.95
2023-01-31T15:13:05.084Z,18.43
2023-01-31T15:16:26.739Z,18.38
2023-01-31T15:19:47.506Z,17.03
2023-01-31T15:23:07.203Z,23.25
2023-01-31T15:29:28.789Z,20.93
2023-01-31T15:32:45.974Z,16.88
2023-01-31T15:36:04.183Z,19.13
2023-01-31T15:39:27.381Z,25.08
2023-01-31T15:42:40.498Z,22.78
2023-01-31T15:45:53.159Z,20.75
2023-01-31T15:49:06.570Z,22.35
2023-01-31T15:52:24.643Z,22.60
2023-01-31T15:55:38.720Z,24.00
2023-01-31T15:58:55.468Z,29.25
2023-01-31T16:02:16.379Z,25.13
2023-01-31T16:05:31.578Z,25.53
2023-01-31T16:08:45.092Z,24.05
2023-01-31T16:11:57.784Z,23.48
2023-01-31T16:15:21.026Z,26.13
2023-01-31T16:18:33.733Z,22.93
2023-01-31T16:21:49.370Z,19.63
2023-01-31T16:25:04.253Z,22.78
2023-01-31T16:28:19.593Z,22.95
2023-01-31T16:31:36.958Z,24.60
2023-01-31T16:34:49.869Z,23.75
2023-01-31T16:38:11.898Z,20.25
2023-01-31T16:41:30.225Z,21.48
2023-01-31T16:44:46.875Z,18.90
2023-01-31T16:47:59.387Z,15.15
2023-01-31T16:51:46.097Z,17.23
2023-01-31T16:55:02.708Z,14.05
2023-01-31T16:58:18.194Z,14.40
2023-01-31T17:01:34.837Z,14.25
2023-01-31T17:04:48.365Z,14.63
2023-01-31T17:08:01.704Z,12.80
2023-01-31T17:11:23.582Z,13.85
2023-01-31T17:14:32.976Z,16.23
2023-01-31T17:17:45.581Z,18.03
2023-01-31T17:20:57.973Z,16.68
2023-01-31T17:24:13.808Z,16.03
2023-01-31T17:27:27.442Z,18.15
2023-01-31T17:30:40.906Z,18.63
2023-01-31T17:33:53.890Z,22.38
2023-01-31T17:37:06.391Z,21.83
2023-01-31T17:40:19.878Z,17.53
2023-01-31T17:43:32.143Z,15.45
2023-01-31T17:46:44.424Z,18.50
2023-01-31T17:49:57.500Z,19.00
2023-01-31T17:53:09.587Z,15.83
2023-01-31T17:56:21.975Z,16.48
2023-01-31T17:59:35.901Z,20.30
2023-01-31T18:02:48.579Z,18.05
2023-01-31T18:06:08.262Z,20.52
2023-01-31T18:09:21.265Z,23.30
2023-01-31T18:12:35.511Z,25.35
2023-01-31T18:15:48.793Z,20.15
2023-01-31T18:19:01.331Z,22.80
2023-01-31T18:22:14.278Z,22.78
2023-01-31T18:25:26.596Z,22.05
2023-01-31T18:28:39.594Z,26.45
2023-01-31T18:31:51.988Z,22.63
2023-01-31T18:42:27.990Z,21.85
2023-01-31T18:45:40.353Z,20.78
2023-01-31T18:48:53.146Z,21.33
2023-01-31T18:52:06.491Z,18.45
2023-01-31T18:59:00.308Z,22.20
2023-01-31T19:06:47.572Z,13.93
2023-01-31T19:10:00.193Z,15.25
2023-01-31T19:13:20.362Z,14.38
2023-01-31T19:16:34.484Z,16.40
2023-01-31T19:27:16.473Z,15.40
2023-01-31T19:30:29.207Z,17.30
2023-01-31T19:33:41.597Z,20.20
2023-01-31T19:36:54.140Z,17.30
2023-01-31T19:40:06.647Z,14.78
2023-01-31T19:43:18.860Z,13.40
2023-01-31T19:46:37.206Z,13.03
2023-01-31T19:49:49.599Z,13.00
2023-01-31T19:53:02.316Z,12.73
2023-01-31T19:56:16.369Z,10.53
2023-01-31T19:59:28.987Z,13.23
2023-01-31T20:02:46.004Z,13.23
2023-01-31T20:05:58.577Z,12.38
2023-01-31T20:09:14.540Z,11.73
2023-01-31T20:19:50.625Z,12.63
2023-01-31T20:26:43.479Z,13.70
2023-01-31T20:29:55.699Z,14.75
2023-01-31T20:33:18.898Z,12.43
2023-01-31T20:36:32.010Z,10.65
2023-01-31T20:39:45.140Z,10.45
2023-01-31T20:42:57.957Z,9.70
2023-01-31T20:46:32.273Z,12.88
2023-01-31T20:53:28.795Z,9.13
2023-01-31T20:56:52.126Z,10.33
2023-01-31T21:11:25.205Z,7.00
2023-01-31T21:18:25.648Z,7.00
2023-01-31T21:21:48.056Z,7.68
2023-01-31T21:25:00.291Z,9.75
2023-01-31T21:48:07.107Z,8.78
2023-01-31T22:05:18.785Z,5.98
2023-01-31T22:19:43.162Z,9.03
2023-01-31T22:34:34.362Z,5.75
2023-01-31T22:52:34.890Z,7.30
